createdAt,value
2017-07-08T00:00:14.569Z,24.68
2017-07-08T00:01:14.272Z,24.61
2017-07-08T00:02:13.982Z,24.55
2017-07-08T00:03:14.652Z,24.55
2017-07-08T00:04:14.680Z,24.53
2017-07-08T00:05:14.705Z,24.57
2017-07-08T00:06:14.421Z,24.53
2017-07-08T00:07:22.015Z,24.55
2017-07-08T00:08:14.458Z,24.45
2017-07-08T00:09:14.485Z,24.45
2017-07-08T00:10:14.511Z,24.4
2017-07-08T00:11:14.541Z,24.43
2017-07-08T00:12:14.247Z,24.48
2017-07-08T00:13:14.601Z,24.45
2017-07-08T00:14:14.947Z,24.45
2017-07-08T00:15:14.652Z,24.39
2017-07-08T00:16:14.674Z,24.42
2017-07-08T00:17:15.029Z,24.38
2017-07-08T00:18:15.056Z,24.38
2017-07-08T00:19:14.763Z,24.35
2017-07-08T00:20:14.782Z,24.39
2017-07-08T00:21:14.810Z,24.28
2017-07-08T00:22:15.162Z,24.26
2017-07-08T00:23:14.541Z,24.3
2017-07-08T00:24:15.216Z,24.28
2017-07-08T00:25:14.920Z,24.28
2017-07-08T00:26:14.947Z,24.26
2017-07-08T00:27:15.389Z,24.2
2017-07-08T00:28:15.415Z,24.21
2017-07-08T00:29:14.705Z,24.17
2017-07-08T00:30:15.056Z,24.13
2017-07-08T00:31:14.760Z,24.16
2017-07-08T00:32:14.787Z,24.18
2017-07-08T00:33:14.818Z,24.11
2017-07-08T00:34:14.840Z,24.06
2017-07-08T00:35:14.949Z,24.1
2017-07-08T00:36:14.893Z,24.1
2017-07-08T00:37:15.589Z,24.13
2017-07-08T00:38:15.697Z,24.1
2017-07-08T00:39:15.398Z,24.01
2017-07-08T00:40:15.422Z,24.03
2017-07-08T00:41:15.359Z,24.05
2017-07-08T00:42:15.729Z,23.96
2017-07-08T00:43:15.734Z,23.98
2017-07-08T00:44:15.762Z,23.93
2017-07-08T00:45:15.560Z,23.88
2017-07-08T00:46:15.817Z,23.91
2017-07-08T00:47:15.834Z,23.88
2017-07-08T00:48:15.869Z,23.88
2017-07-08T00:49:15.895Z,23.92
2017-07-08T00:50:15.595Z,23.92
2017-07-08T00:51:15.702Z,23.81
2017-07-08T00:52:15.971Z,23.78
2017-07-08T00:53:15.998Z,23.83
2017-07-08T00:54:16.034Z,23.76
2017-07-08T00:55:15.731Z,23.83
2017-07-08T00:56:16.079Z,23.76
2017-07-08T00:57:15.784Z,23.81
2017-07-08T00:58:15.809Z,23.69
2017-07-08T00:59:15.839Z,23.8
2017-07-08T01:00:15.862Z,23.73
2017-07-08T01:01:16.216Z,23.76
2017-07-08T01:02:16.357Z,23.73
2017-07-08T01:03:15.946Z,23.66
2017-07-08T01:04:15.975Z,23.71
2017-07-08T01:05:15.998Z,23.69
2017-07-08T01:06:16.469Z,23.71
2017-07-08T01:07:16.370Z,23.73
2017-07-08T01:08:16.077Z,23.66
2017-07-08T01:09:16.104Z,23.73
2017-07-08T01:10:16.443Z,23.71
2017-07-08T01:11:16.479Z,23.65
2017-07-08T01:12:16.182Z,23.59
2017-07-08T01:13:16.208Z,23.62
2017-07-08T01:14:16.241Z,23.61
2017-07-08T01:15:16.263Z,23.59
2017-07-08T01:16:16.288Z,23.55
2017-07-08T01:17:16.321Z,23.59
2017-07-08T01:18:16.345Z,23.51
2017-07-08T01:19:16.371Z,23.51
2017-07-08T01:20:16.722Z,23.48
2017-07-08T01:21:16.419Z,23.5
2017-07-08T01:22:16.449Z,23.46
2017-07-08T01:23:16.798Z,23.41
2017-07-08T01:24:16.821Z,23.51
2017-07-08T01:25:16.961Z,23.47
2017-07-08T01:26:16.230Z,23.41
2017-07-08T01:27:17.337Z,23.37
2017-07-08T01:28:16.606Z,23.39
2017-07-08T01:29:16.950Z,23.37
2017-07-08T01:30:16.662Z,23.36
2017-07-08T01:31:16.690Z,23.27
2017-07-08T01:32:17.492Z,23.39
2017-07-08T01:33:17.058Z,23.32
2017-07-08T01:34:16.443Z,23.34
2017-07-08T01:35:16.793Z,23.4
2017-07-08T01:36:17.184Z,23.41
2017-07-08T01:37:16.942Z,23.25
2017-07-08T01:38:16.914Z,23.28
2017-07-08T01:39:17.323Z,23.25
2017-07-08T01:40:17.562Z,23.23
2017-07-08T01:41:17.090Z,23.2
2017-07-08T01:42:16.976Z,23.31
2017-07-08T01:43:17.003Z,23.25
2017-07-08T01:44:17.415Z,23.24
2017-07-08T01:45:17.052Z,23.18
2017-07-08T01:46:17.079Z,23.24
2017-07-08T01:47:17.110Z,23.18
2017-07-08T01:48:17.516Z,23.1
2017-07-08T01:49:17.158Z,23.1
2017-07-08T01:50:17.188Z,23.12
2017-07-08T01:51:17.641Z,23.17
2017-07-08T01:52:17.334Z,23.13
2017-07-08T01:53:17.360Z,23.15
2017-07-08T01:54:17.294Z,23.13
2017-07-08T01:55:16.994Z,23.06
2017-07-08T01:56:17.718Z,23.08
2017-07-08T01:57:17.698Z,23.08
2017-07-08T01:58:17.507Z,23.02
2017-07-08T01:59:17.524Z,23.05
2017-07-08T02:00:17.768Z,22.99
2017-07-08T02:01:17.469Z,23.02
2017-07-08T02:02:17.824Z,23
2017-07-08T02:03:17.529Z,23.02
2017-07-08T02:04:17.640Z,23
2017-07-08T02:05:17.667Z,23
2017-07-08T02:06:17.665Z,23.05
2017-07-08T02:07:17.664Z,22.96
2017-07-08T02:08:17.678Z,22.99
2017-07-08T02:09:17.681Z,22.91
2017-07-08T02:10:17.510Z,22.94
2017-07-08T02:11:17.635Z,22.88
2017-07-08T02:12:17.764Z,22.88
2017-07-08T02:13:17.789Z,22.9
2017-07-08T02:14:17.537Z,22.85
2017-07-08T02:15:18.295Z,22.87
2017-07-08T02:16:18.029Z,22.87
2017-07-08T02:17:18.024Z,22.81
2017-07-08T02:18:18.121Z,22.81
2017-07-08T02:19:18.446Z,22.81
2017-07-08T02:20:17.893Z,22.88
2017-07-08T02:21:18.505Z,22.9
2017-07-08T02:22:18.126Z,22.81
2017-07-08T02:23:17.805Z,22.76
2017-07-08T02:24:18.516Z,22.8
2017-07-08T02:25:18.329Z,22.76
2017-07-08T02:26:18.256Z,22.81
2017-07-08T02:27:18.775Z,22.81
2017-07-08T02:28:18.342Z,22.78
2017-07-08T02:29:18.588Z,22.7
2017-07-08T02:30:18.771Z,22.68
2017-07-08T02:31:18.653Z,22.73
2017-07-08T02:32:18.467Z,22.72
2017-07-08T02:33:18.626Z,22.72
2017-07-08T02:34:18.661Z,22.72
2017-07-08T02:35:18.385Z,22.66
2017-07-08T02:36:18.060Z,22.68
2017-07-08T02:37:18.410Z,22.65
2017-07-08T02:38:18.434Z,22.68
2017-07-08T02:39:18.781Z,22.69
2017-07-08T02:40:18.810Z,22.69
2017-07-08T02:41:18.513Z,22.62
2017-07-08T02:42:18.865Z,22.66
2017-07-08T02:43:18.887Z,22.62
2017-07-08T02:44:18.917Z,22.63
2017-07-08T02:45:18.995Z,22.62
2017-07-08T02:46:18.965Z,22.59
2017-07-08T02:47:18.995Z,22.59
2017-07-08T02:48:19.069Z,22.55
2017-07-08T02:49:19.040Z,22.55
2017-07-08T02:50:19.229Z,22.57
2017-07-08T02:51:18.770Z,22.62
2017-07-08T02:52:19.117Z,22.55
2017-07-08T02:53:19.257Z,22.53
2017-07-08T02:54:18.846Z,22.53
2017-07-08T02:55:18.870Z,22.51
2017-07-08T02:56:19.290Z,22.51
2017-07-08T02:57:18.923Z,22.55
2017-07-08T02:58:18.950Z,22.5
2017-07-08T02:59:19.294Z,22.54
2017-07-08T03:00:18.991Z,22.45
2017-07-08T03:01:19.347Z,22.54
2017-07-08T03:02:19.050Z,22.5
2017-07-08T03:03:19.403Z,22.47
2017-07-08T03:04:18.777Z,22.44
2017-07-08T03:05:18.808Z,22.53
2017-07-08T03:06:18.824Z,22.45
2017-07-08T03:07:18.853Z,22.48
2017-07-08T03:08:19.207Z,22.53
2017-07-08T03:09:19.551Z,22.53
2017-07-08T03:10:19.577Z,22.55
2017-07-08T03:11:19.278Z,22.45
2017-07-08T03:12:19.309Z,22.55
2017-07-08T03:13:19.332Z,22.5
2017-07-08T03:14:19.744Z,22.51
2017-07-08T03:15:19.704Z,22.5
2017-07-08T03:16:19.729Z,22.47
2017-07-08T03:17:19.763Z,22.5
2017-07-08T03:18:19.468Z,22.43
2017-07-08T03:19:19.811Z,22.36
2017-07-08T03:20:19.513Z,22.41
2017-07-08T03:21:19.864Z,22.38
2017-07-08T03:22:19.241Z,22.44
2017-07-08T03:23:19.582Z,22.45
2017-07-08T03:24:19.612Z,22.36
2017-07-08T03:25:19.964Z,22.39
2017-07-08T03:26:20.277Z,22.43
2017-07-08T03:27:20.014Z,22.38
2017-07-08T03:28:19.714Z,22.36
2017-07-08T03:29:20.074Z,22.35
2017-07-08T03:30:20.083Z,22.32
2017-07-08T03:31:19.796Z,22.36
2017-07-08T03:32:19.815Z,22.35
2017-07-08T03:33:19.847Z,22.41
2017-07-08T03:34:19.542Z,22.3
2017-07-08T03:35:20.217Z,22.3
2017-07-08T03:36:19.915Z,22.3
2017-07-08T03:37:19.619Z,22.28
2017-07-08T03:38:20.293Z,22.29
2017-07-08T03:39:20.319Z,22.23
2017-07-08T03:40:20.343Z,22.28
2017-07-08T03:41:20.372Z,22.28
2017-07-08T03:42:19.747Z,22.23
2017-07-08T03:43:19.772Z,22.23
2017-07-08T03:44:20.122Z,22.28
2017-07-08T03:45:20.470Z,22.2
2017-07-08T03:46:20.493Z,22.29
2017-07-08T03:47:20.194Z,22.23
2017-07-08T03:48:20.547Z,22.23
2017-07-08T03:49:20.575Z,22.23
2017-07-08T03:50:20.334Z,22.23
2017-07-08T03:51:20.295Z,22.17
2017-07-08T03:52:20.323Z,22.13
2017-07-08T03:53:20.668Z,22.13
2017-07-08T03:54:20.697Z,22.2
2017-07-08T03:55:20.723Z,22.13
2017-07-08T03:56:20.420Z,22.25
2017-07-08T03:57:20.449Z,22.13
2017-07-08T03:58:20.799Z,22.15
2017-07-08T03:59:20.496Z,22.22
2017-07-08T04:00:20.848Z,22.26
2017-07-08T04:01:20.600Z,22.25
2017-07-08T04:02:20.895Z,22.25
2017-07-08T04:03:20.922Z,22.2
2017-07-08T04:04:20.629Z,22.26
2017-07-08T04:05:20.969Z,22.23
2017-07-08T04:06:20.997Z,22.26
2017-07-08T04:07:20.378Z,22.23
2017-07-08T04:08:21.048Z,22.25
2017-07-08T04:09:21.075Z,22.18
2017-07-08T04:10:21.108Z,22.18
2017-07-08T04:11:20.803Z,22.18
2017-07-08T04:12:20.504Z,22.25
2017-07-08T04:13:21.201Z,22.2
2017-07-08T04:14:20.880Z,22.23
2017-07-08T04:15:21.428Z,22.22
2017-07-08T04:16:21.328Z,22.25
2017-07-08T04:17:20.720Z,22.22
2017-07-08T04:18:21.437Z,22.23
2017-07-08T04:19:21.090Z,22.2
2017-07-08T04:20:21.408Z,22.23
2017-07-08T04:21:21.403Z,22.23
2017-07-08T04:22:21.403Z,22.18
2017-07-08T04:23:21.222Z,22.25
2017-07-08T04:24:21.128Z,22.22
2017-07-08T04:25:21.156Z,22.23
2017-07-08T04:26:20.854Z,22.28
2017-07-08T04:27:21.206Z,22.22
2017-07-08T04:28:21.556Z,22.23
2017-07-08T04:29:21.252Z,22.25
2017-07-08T04:30:21.600Z,22.26
2017-07-08T04:31:21.630Z,22.15
2017-07-08T04:32:21.419Z,22.23
2017-07-08T04:33:21.033Z,22.28
2017-07-08T04:34:21.384Z,22.2
2017-07-08T04:35:21.774Z,22.18
2017-07-08T04:36:21.431Z,22.23
2017-07-08T04:37:21.780Z,22.23
2017-07-08T04:38:21.155Z,22.25
2017-07-08T04:39:21.505Z,22.23
2017-07-08T04:40:21.852Z,22.23
2017-07-08T04:41:21.882Z,22.23
2017-07-08T04:42:21.581Z,22.28
2017-07-08T04:43:21.928Z,22.26
2017-07-08T04:44:21.961Z,22.23
2017-07-08T04:45:22.196Z,22.23
2017-07-08T04:46:21.879Z,22.23
2017-07-08T04:47:22.003Z,22.26
2017-07-08T04:48:22.060Z,22.23
2017-07-08T04:49:21.757Z,22.26
2017-07-08T04:50:22.218Z,22.28
2017-07-08T04:51:21.807Z,22.23
2017-07-08T04:52:21.507Z,22.28
2017-07-08T04:53:22.181Z,22.26
2017-07-08T04:54:22.320Z,22.3
2017-07-08T04:55:22.229Z,22.25
2017-07-08T04:56:21.930Z,22.29
2017-07-08T04:57:22.365Z,22.28
2017-07-08T04:58:21.656Z,22.35
2017-07-08T04:59:21.684Z,22.29
2017-07-08T05:00:21.709Z,22.33
2017-07-08T05:01:22.059Z,22.41
2017-07-08T05:02:21.761Z,22.35
2017-07-08T05:03:22.228Z,22.35
2017-07-08T05:04:22.454Z,22.32
2017-07-08T05:05:22.481Z,22.35
2017-07-08T05:06:21.857Z,22.39
2017-07-08T05:07:21.892Z,22.36
2017-07-08T05:08:22.230Z,22.36
2017-07-08T05:09:21.935Z,22.35
2017-07-08T05:10:22.614Z,22.35
2017-07-08T05:11:22.633Z,22.39
2017-07-08T05:12:22.337Z,22.36
2017-07-08T05:13:22.357Z,22.35
2017-07-08T05:14:22.705Z,22.36
2017-07-08T05:15:22.738Z,22.36
2017-07-08T05:16:22.108Z,22.39
2017-07-08T05:17:22.785Z,22.43
2017-07-08T05:18:22.491Z,22.47
2017-07-08T05:19:22.184Z,22.38
2017-07-08T05:20:22.862Z,22.41
2017-07-08T05:21:22.882Z,22.47
2017-07-08T05:22:22.579Z,22.55
2017-07-08T05:23:22.610Z,22.53
2017-07-08T05:24:22.312Z,22.5
2017-07-08T05:25:22.981Z,22.45
2017-07-08T05:26:23.003Z,22.55
2017-07-08T05:27:23.044Z,22.48
2017-07-08T05:28:23.058Z,22.47
2017-07-08T05:29:22.436Z,22.44
2017-07-08T05:30:22.784Z,22.51
2017-07-08T05:31:23.134Z,22.51
2017-07-08T05:32:22.833Z,22.53
2017-07-08T05:33:22.540Z,22.62
2017-07-08T05:34:22.887Z,22.63
2017-07-08T05:35:23.233Z,22.59
2017-07-08T05:36:23.258Z,22.69
2017-07-08T05:37:23.282Z,22.65
2017-07-08T05:38:23.310Z,22.68
2017-07-08T05:39:23.018Z,22.7
2017-07-08T05:40:23.357Z,22.7
2017-07-08T05:41:23.060Z,22.7
2017-07-08T05:42:23.083Z,22.73
2017-07-08T05:43:22.787Z,22.69
2017-07-08T05:44:22.933Z,22.81
2017-07-08T05:45:23.484Z,22.84
2017-07-08T05:46:23.190Z,22.8
2017-07-08T05:47:23.655Z,22.81
2017-07-08T05:48:23.284Z,22.88
2017-07-08T05:49:23.585Z,22.83
2017-07-08T05:50:23.616Z,22.91
2017-07-08T05:51:23.635Z,22.99
2017-07-08T05:52:23.336Z,22.98
2017-07-08T05:53:23.691Z,23.03
2017-07-08T05:54:23.716Z,23
2017-07-08T05:55:23.733Z,23.05
2017-07-08T05:56:23.117Z,23.06
2017-07-08T05:57:23.464Z,23.06
2017-07-08T05:58:23.813Z,23.06
2017-07-08T05:59:23.193Z,23.12
2017-07-08T06:00:23.868Z,23.23
2017-07-08T06:01:23.575Z,23.2
2017-07-08T06:02:23.594Z,23.23
2017-07-08T06:03:23.736Z,23.18
2017-07-08T06:04:23.710Z,23.24
2017-07-08T06:05:23.346Z,23.28
2017-07-08T06:06:23.694Z,23.25
2017-07-08T06:07:23.399Z,23.23
2017-07-08T06:08:24.064Z,23.2
2017-07-08T06:09:23.768Z,23.28
2017-07-08T06:10:24.121Z,23.36
2017-07-08T06:11:23.825Z,23.4
2017-07-08T06:12:23.519Z,23.28
2017-07-08T06:13:24.191Z,23.4
2017-07-08T06:14:23.898Z,23.37
2017-07-08T06:15:24.247Z,23.39
2017-07-08T06:16:24.272Z,23.39
2017-07-08T06:17:23.976Z,23.44
2017-07-08T06:18:24.325Z,23.51
2017-07-08T06:19:23.700Z,23.44
2017-07-08T06:20:24.053Z,23.59
2017-07-08T06:21:24.075Z,23.51
2017-07-08T06:22:24.436Z,23.54
2017-07-08T06:23:24.447Z,23.59
2017-07-08T06:24:24.280Z,23.61
2017-07-08T06:25:24.624Z,23.61
2017-07-08T06:26:24.650Z,23.63
2017-07-08T06:27:24.229Z,23.65
2017-07-08T06:28:23.932Z,23.61
2017-07-08T06:29:24.607Z,23.71
2017-07-08T06:30:23.984Z,23.65
2017-07-08T06:31:24.656Z,23.71
2017-07-08T06:32:24.679Z,23.73
2017-07-08T06:33:24.822Z,23.73
2017-07-08T06:34:24.414Z,23.77
2017-07-08T06:35:24.767Z,23.77
2017-07-08T06:36:24.785Z,23.76
2017-07-08T06:37:24.809Z,23.84
2017-07-08T06:38:24.952Z,23.91
2017-07-08T06:39:24.536Z,23.92
2017-07-08T06:40:24.569Z,23.96
2017-07-08T06:41:24.589Z,23.95
2017-07-08T06:42:24.617Z,24.03
2017-07-08T06:43:24.641Z,24.01
2017-07-08T06:44:24.991Z,24.02
2017-07-08T06:45:25.020Z,24.06
2017-07-08T06:46:24.399Z,24.1
2017-07-08T06:47:24.748Z,24.06
2017-07-08T06:48:25.099Z,24.13
2017-07-08T06:49:24.798Z,24.24
2017-07-08T06:50:24.825Z,24.21
2017-07-08T06:51:24.854Z,24.3
2017-07-08T06:52:25.201Z,24.28
2017-07-08T06:53:24.577Z,24.36
2017-07-08T06:54:25.251Z,24.4
2017-07-08T06:55:24.956Z,24.47
2017-07-08T06:56:24.980Z,24.39
2017-07-08T06:57:25.531Z,24.43
2017-07-08T06:58:25.355Z,24.5
2017-07-08T06:59:25.405Z,24.55
2017-07-08T07:00:25.083Z,24.58
2017-07-08T07:01:25.113Z,24.65
2017-07-08T07:02:25.462Z,24.57
2017-07-08T07:03:25.478Z,24.65
2017-07-08T07:04:25.218Z,24.65
2017-07-08T07:05:25.345Z,24.6
2017-07-08T07:06:25.563Z,24.6
2017-07-08T07:07:25.593Z,24.61
2017-07-08T07:08:25.620Z,24.69
2017-07-08T07:09:25.318Z,24.65
2017-07-08T07:10:25.671Z,24.68
2017-07-08T07:11:25.371Z,24.65
2017-07-08T07:12:25.170Z,24.69
2017-07-08T07:13:25.425Z,24.74
2017-07-08T07:14:25.819Z,24.68
2017-07-08T07:15:25.900Z,24.7
2017-07-08T07:16:25.504Z,24.77
2017-07-08T07:17:25.532Z,24.8
2017-07-08T07:18:25.878Z,24.84
2017-07-08T07:19:25.906Z,24.86
2017-07-08T07:20:25.941Z,24.93
2017-07-08T07:21:26.073Z,24.95
2017-07-08T07:22:25.661Z,25.06
2017-07-08T07:23:25.690Z,25.1
2017-07-08T07:24:25.718Z,25.13
2017-07-08T07:25:25.742Z,25.14
2017-07-08T07:26:26.099Z,25.38
2017-07-08T07:27:26.123Z,25.31
2017-07-08T07:28:26.215Z,25.31
2017-07-08T07:29:26.168Z,25.41
2017-07-08T07:30:26.198Z,25.46
2017-07-08T07:31:26.225Z,25.59
2017-07-08T07:32:25.925Z,25.63
2017-07-08T07:33:26.068Z,25.58
2017-07-08T07:34:26.316Z,25.6
2017-07-08T07:35:25.684Z,25.73
2017-07-08T07:36:26.102Z,25.69
2017-07-08T07:37:26.102Z,25.72
2017-07-08T07:38:26.100Z,25.81
2017-07-08T07:39:26.440Z,25.87
2017-07-08T07:40:26.231Z,25.95
2017-07-08T07:41:26.489Z,25.99
2017-07-08T07:42:26.194Z,26.03
2017-07-08T07:43:26.544Z,26.06
2017-07-08T07:44:26.249Z,26.1
2017-07-08T07:45:26.297Z,26.1
2017-07-08T07:46:25.981Z,26.15
2017-07-08T07:47:26.328Z,26.16
2017-07-08T07:48:26.354Z,26.28
2017-07-08T07:49:26.383Z,26.34
2017-07-08T07:50:26.409Z,26.28
2017-07-08T07:51:26.441Z,26.33
2017-07-08T07:52:26.474Z,26.37
2017-07-08T07:53:26.820Z,26.51
2017-07-08T07:54:26.197Z,26.53
2017-07-08T07:55:26.225Z,26.52
2017-07-08T07:56:26.573Z,26.58
2017-07-08T07:57:26.605Z,26.59
2017-07-08T07:58:26.949Z,26.68
2017-07-08T07:59:26.979Z,26.66
2017-07-08T08:00:26.683Z,26.66
2017-07-08T08:01:27.031Z,26.77
2017-07-08T08:02:26.736Z,26.84
2017-07-08T08:03:27.157Z,26.85
2017-07-08T08:04:26.792Z,26.89
2017-07-08T08:05:26.821Z,26.95
2017-07-08T08:06:26.526Z,26.92
2017-07-08T08:07:26.882Z,26.97
2017-07-08T08:08:26.904Z,27
2017-07-08T08:09:26.613Z,27.05
2017-07-08T08:10:26.968Z,27.02
2017-07-08T08:11:26.665Z,27.08
2017-07-08T08:12:26.694Z,27.17
2017-07-08T08:13:27.371Z,27.11
2017-07-08T08:14:26.746Z,27.14
2017-07-08T08:15:27.419Z,27.08
2017-07-08T08:16:26.800Z,27.12
2017-07-08T08:17:27.477Z,27.17
2017-07-08T08:18:27.179Z,27.11
2017-07-08T08:19:27.208Z,27.18
2017-07-08T08:20:27.554Z,27.15
2017-07-08T08:21:27.264Z,27.2
2017-07-08T08:22:27.612Z,27.26
2017-07-08T08:23:26.999Z,27.29
2017-07-08T08:24:27.026Z,27.25
2017-07-08T08:25:27.053Z,27.27
2017-07-08T08:26:27.726Z,27.4
2017-07-08T08:27:27.431Z,27.37
2017-07-08T08:28:27.488Z,27.48
2017-07-08T08:29:27.812Z,27.45
2017-07-08T08:30:27.194Z,27.49
2017-07-08T08:31:27.223Z,27.51
2017-07-08T08:32:27.902Z,27.54
2017-07-08T08:33:27.920Z,27.58
2017-07-08T08:34:27.306Z,27.58
2017-07-08T08:35:27.662Z,27.59
2017-07-08T08:36:27.684Z,27.6
2017-07-08T08:37:27.712Z,27.7
2017-07-08T08:38:28.071Z,27.65
2017-07-08T08:39:28.100Z,27.71
2017-07-08T08:40:27.476Z,27.74
2017-07-08T08:41:27.505Z,27.65
2017-07-08T08:42:27.854Z,27.75
2017-07-08T08:43:27.885Z,27.78
2017-07-08T08:44:27.587Z,27.89
2017-07-08T08:45:27.945Z,27.87
2017-07-08T08:46:28.288Z,27.96
2017-07-08T08:47:28.328Z,28.02
2017-07-08T08:48:27.703Z,28.05
2017-07-08T08:49:28.064Z,27.96
2017-07-08T08:50:28.078Z,28
2017-07-08T08:51:28.111Z,28.08
2017-07-08T08:52:28.140Z,28.15
2017-07-08T08:53:27.844Z,28.19
2017-07-08T08:54:28.197Z,28.29
2017-07-08T08:55:28.557Z,28.29
2017-07-08T08:56:28.262Z,28.35
2017-07-08T08:57:28.284Z,28.41
2017-07-08T08:58:28.632Z,28.47
2017-07-08T08:59:28.668Z,28.42
2017-07-08T09:00:28.802Z,28.42
2017-07-08T09:01:28.400Z,28.39
2017-07-08T09:02:28.426Z,28.49
2017-07-08T09:03:28.826Z,28.57
2017-07-08T09:04:28.483Z,28.52
2017-07-08T09:05:28.510Z,28.47
2017-07-08T09:06:28.539Z,28.54
2017-07-08T09:07:28.249Z,28.54
2017-07-08T09:08:28.601Z,28.56
2017-07-08T09:09:28.631Z,28.49
2017-07-08T09:10:28.660Z,28.56
2017-07-08T09:11:28.687Z,28.6
2017-07-08T09:12:28.395Z,28.59
2017-07-08T09:13:28.745Z,28.62
2017-07-08T09:14:28.777Z,28.66
2017-07-08T09:15:28.799Z,28.82
2017-07-08T09:16:28.835Z,28.78
2017-07-08T09:17:29.186Z,28.69
2017-07-08T09:18:29.211Z,28.74
2017-07-08T09:19:29.241Z,28.78
2017-07-08T09:20:28.624Z,28.76
2017-07-08T09:21:29.300Z,28.79
2017-07-08T09:22:28.693Z,28.84
2017-07-08T09:23:29.033Z,28.86
2017-07-08T09:24:29.067Z,28.85
2017-07-08T09:25:29.419Z,28.86
2017-07-08T09:26:29.121Z,28.93
2017-07-08T09:27:29.151Z,28.98
2017-07-08T09:28:29.182Z,29.02
2017-07-08T09:29:28.888Z,29.02
2017-07-08T09:30:29.569Z,28.98
2017-07-08T09:31:29.272Z,29.14
2017-07-08T09:32:29.621Z,29.32
2017-07-08T09:33:29.328Z,29.31
2017-07-08T09:34:29.357Z,29.35
2017-07-08T09:35:29.396Z,29.51
2017-07-08T09:36:29.415Z,29.56
2017-07-08T09:37:29.774Z,29.56
2017-07-08T09:38:29.483Z,29.65
2017-07-08T09:39:29.504Z,29.73
2017-07-08T09:40:29.860Z,29.78
2017-07-08T09:41:29.901Z,29.87
2017-07-08T09:42:29.276Z,29.82
2017-07-08T09:43:29.624Z,29.94
2017-07-08T09:44:29.984Z,30.02
2017-07-08T09:45:29.688Z,30
2017-07-08T09:46:29.395Z,30.12
2017-07-08T09:47:29.742Z,30.19
2017-07-08T09:48:29.774Z,30.16
2017-07-08T09:49:29.806Z,30.25
2017-07-08T09:50:29.835Z,30.4
2017-07-08T09:51:29.538Z,30.4
2017-07-08T09:52:30.216Z,30.5
2017-07-08T09:53:29.599Z,30.57
2017-07-08T09:54:29.958Z,30.57
2017-07-08T09:55:29.662Z,30.65
2017-07-08T09:56:30.010Z,30.68
2017-07-08T09:57:30.046Z,30.66
2017-07-08T09:58:30.074Z,30.69
2017-07-08T09:59:30.102Z,30.68
2017-07-08T10:00:30.458Z,30.65
2017-07-08T10:01:30.170Z,30.75
2017-07-08T10:02:30.518Z,30.62
2017-07-08T10:03:30.551Z,30.65
2017-07-08T10:04:30.258Z,30.63
2017-07-08T10:05:30.617Z,30.61
2017-07-08T10:06:30.316Z,30.57
2017-07-08T10:07:30.759Z,30.61
2017-07-08T10:08:30.382Z,30.61
2017-07-08T10:09:30.407Z,30.53
2017-07-08T10:10:30.442Z,30.53
2017-07-08T10:11:30.469Z,30.5
2017-07-08T10:12:30.503Z,30.43
2017-07-08T10:13:30.526Z,30.43
2017-07-08T10:14:30.559Z,30.32
2017-07-08T10:15:30.291Z,30.34
2017-07-08T10:16:30.618Z,30.4
2017-07-08T10:17:30.971Z,30.28
2017-07-08T10:18:30.683Z,30.27
2017-07-08T10:19:31.035Z,30.18
2017-07-08T10:20:31.059Z,30.19
2017-07-08T10:21:30.771Z,30.18
2017-07-08T10:22:31.120Z,30.15
2017-07-08T10:23:30.833Z,30.08
2017-07-08T10:24:30.865Z,30
2017-07-08T10:25:31.221Z,30.03
2017-07-08T10:26:30.925Z,29.86
2017-07-08T10:27:31.277Z,29.84
2017-07-08T10:28:31.307Z,29.76
2017-07-08T10:29:31.012Z,29.66
2017-07-08T10:30:30.723Z,29.69
2017-07-08T10:31:31.401Z,29.54
2017-07-08T10:32:30.782Z,29.59
2017-07-08T10:33:31.137Z,29.51
2017-07-08T10:34:31.169Z,29.44
2017-07-08T10:35:31.198Z,29.27
2017-07-08T10:36:31.552Z,29.32
2017-07-08T10:37:31.584Z,29.17
2017-07-08T10:38:30.966Z,29.13
2017-07-08T10:39:31.645Z,29.08
2017-07-08T10:40:31.348Z,29.01
2017-07-08T10:41:31.056Z,28.86
2017-07-08T10:42:31.792Z,28.84
2017-07-08T10:43:31.444Z,28.85
2017-07-08T10:44:31.797Z,28.88
2017-07-08T10:45:31.823Z,28.82
2017-07-08T10:46:31.533Z,28.84
2017-07-08T10:47:31.882Z,28.84
2017-07-08T10:48:31.914Z,28.84
2017-07-08T10:49:31.943Z,28.72
2017-07-08T10:50:31.973Z,28.88
2017-07-08T10:51:31.690Z,28.85
2017-07-08T10:52:31.713Z,28.78
2017-07-08T10:53:31.737Z,28.85
2017-07-08T10:54:31.772Z,28.81
2017-07-08T10:55:32.125Z,28.85
2017-07-08T10:56:32.187Z,28.72
2017-07-08T10:57:31.859Z,28.74
2017-07-08T10:58:31.893Z,28.64
2017-07-08T10:59:32.313Z,28.74
2017-07-08T11:00:31.953Z,28.76
2017-07-08T11:01:31.655Z,28.67
2017-07-08T11:02:32.337Z,28.64
2017-07-08T11:03:32.369Z,28.67
2017-07-08T11:04:32.072Z,28.59
2017-07-08T11:05:32.430Z,28.52
2017-07-08T11:06:32.456Z,28.54
2017-07-08T11:07:32.164Z,28.57
2017-07-08T11:08:32.522Z,28.6
2017-07-08T11:09:32.225Z,28.62
2017-07-08T11:10:32.254Z,28.52
2017-07-08T11:11:32.285Z,28.63
2017-07-08T11:12:32.647Z,28.51
2017-07-08T11:13:32.341Z,28.6
2017-07-08T11:14:32.698Z,28.54
2017-07-08T11:15:32.727Z,28.62
2017-07-08T11:16:32.755Z,28.62
2017-07-08T11:17:32.791Z,28.63
2017-07-08T11:18:32.494Z,28.66
2017-07-08T11:19:32.921Z,28.64
2017-07-08T11:20:32.320Z,28.67
2017-07-08T11:21:32.585Z,28.74
2017-07-08T11:22:32.932Z,28.75
2017-07-08T11:23:32.963Z,28.72
2017-07-08T11:24:32.991Z,28.81
2017-07-08T11:25:33.024Z,28.76
2017-07-08T11:26:33.057Z,28.86
2017-07-08T11:27:33.088Z,28.97
2017-07-08T11:28:32.469Z,29.02
2017-07-08T11:29:32.818Z,29.12
2017-07-08T11:30:32.850Z,29.12
2017-07-08T11:31:33.209Z,29.27
2017-07-08T11:32:32.588Z,29.35
2017-07-08T11:33:33.066Z,29.5
2017-07-08T11:34:32.746Z,29.63
2017-07-08T11:35:33.411Z,29.76
2017-07-08T11:36:33.352Z,30.02
2017-07-08T11:37:33.386Z,30.1
2017-07-08T11:38:33.416Z,30.18
2017-07-08T11:39:32.799Z,30.39
2017-07-08T11:40:33.170Z,30.46
2017-07-08T11:41:33.639Z,30.59
2017-07-08T11:42:33.343Z,30.66
2017-07-08T11:43:33.360Z,30.72
2017-07-08T11:44:33.076Z,30.88
2017-07-08T11:45:33.302Z,30.91
2017-07-08T11:46:33.662Z,31.02
2017-07-08T11:47:33.368Z,31.14
2017-07-08T11:48:33.398Z,31.22
2017-07-08T11:49:33.428Z,31.29
2017-07-08T11:50:33.782Z,31.37
2017-07-08T11:51:33.818Z,31.43
2017-07-08T11:52:33.861Z,31.4
2017-07-08T11:53:33.557Z,31.47
2017-07-08T11:54:33.591Z,31.55
2017-07-08T11:55:33.617Z,31.64
2017-07-08T11:56:33.646Z,31.73
2017-07-08T11:57:34.001Z,31.73
2017-07-08T11:58:33.387Z,31.94
2017-07-08T11:59:33.743Z,31.94
2017-07-08T12:00:33.773Z,32.01
2017-07-08T12:01:34.293Z,32.03
2017-07-08T12:02:33.835Z,32.08
2017-07-08T12:03:33.868Z,32.09
2017-07-08T12:04:33.903Z,32.19
2017-07-08T12:05:33.959Z,32.19
2017-07-08T12:06:33.959Z,32.21
2017-07-08T12:07:33.998Z,32.19
2017-07-08T12:08:34.021Z,32.23
2017-07-08T12:09:34.384Z,32.29
2017-07-08T12:10:33.766Z,32.36
2017-07-08T12:11:34.444Z,32.41
2017-07-08T12:12:34.152Z,32.38
2017-07-08T12:13:34.186Z,32.37
2017-07-08T12:14:34.541Z,32.51
2017-07-08T12:15:34.576Z,32.53
2017-07-08T12:16:34.281Z,32.63
2017-07-08T12:17:34.639Z,32.56
2017-07-08T12:18:34.344Z,32.68
2017-07-08T12:19:34.373Z,32.73
2017-07-08T12:20:34.406Z,32.82
2017-07-08T12:21:34.440Z,32.92
2017-07-08T12:22:34.146Z,32.95
2017-07-08T12:23:34.823Z,32.92
2017-07-08T12:24:34.860Z,33.05
2017-07-08T12:25:34.572Z,33.15
2017-07-08T12:26:34.955Z,33.31
2017-07-08T12:27:34.961Z,33.39
2017-07-08T12:28:34.344Z,33.39
2017-07-08T12:29:34.712Z,33.42
2017-07-08T12:30:34.732Z,33.43
2017-07-08T12:31:34.440Z,33.42
2017-07-08T12:32:35.118Z,33.52
2017-07-08T12:33:34.828Z,33.5
2017-07-08T12:34:34.536Z,33.57
2017-07-08T12:35:35.216Z,33.58
2017-07-08T12:36:34.605Z,33.61
2017-07-08T12:37:34.955Z,33.61
2017-07-08T12:38:34.668Z,33.61
2017-07-08T12:39:35.025Z,33.57
2017-07-08T12:40:34.730Z,33.52
2017-07-08T12:41:35.444Z,33.58
2017-07-08T12:42:35.455Z,33.59
2017-07-08T12:43:35.156Z,33.65
2017-07-08T12:44:35.602Z,33.76
2017-07-08T12:45:35.221Z,33.83
2017-07-08T12:46:35.258Z,33.95
2017-07-08T12:47:35.287Z,33.9
2017-07-08T12:48:35.756Z,34.11
2017-07-08T12:49:35.349Z,34.05
2017-07-08T12:50:35.391Z,34.13
2017-07-08T12:51:35.780Z,34.06
2017-07-08T12:52:35.449Z,34.05
2017-07-08T12:53:35.891Z,34.1
2017-07-08T12:54:35.928Z,34.06
2017-07-08T12:55:35.226Z,34.06